Terminal Aerodrome Forecast
Issued by NWS Green Bay, WI

Home | Current Version | Previous Version | Graphics & Text | Print | Product List | Glossary On
Versions: 1 2 3 4 5 6 7 8 9 10 11 12 13 14 15 16 17 18 19 20 21 22 23 24 25 26 27 28 29 30 31 32 33 34 35 36 37 38 39 40 41 42 43 44 45 46 47 48
432
FTUS43 KGRB 060214 AAB
TAFGRB
TAF AMD
KGRB 060214Z 0602/0624 17006KT P6SM OVC010
     FM060600 16007KT 4SM BR OVC005
     FM061500 17009KT P6SM OVC012
     FM061900 22009G15KT P6SM BKN020
     FM062200 25013G23KT P6SM -SHSN BKN030=

USA.gov is the U.S. government's official web portal to all federal, state and local government web resources and services.